KPTN/PTN METAR and TAF weather

Enter ICAO airport designator
Station Type Date Time Source
KPTN METAR 2022/05/24 12:56 UTC NOAA

KPTN 241256Z AUTO 13005KT 10SM FEW017 SCT026 SCT032 24/24 A2990 RMK AO2 SLP126 T02390239 $


Station Type Date Time Source
KPTN Decoded METAR 2022/05/24 12:56 UTC NOAA

Patterson Memorial, LA, United States (KPTN) 29-43N 091-20W
May 24, 2022 - 08:56 AM EDT / 2022.05.24 1256 UTC
Wind: from the SE (130 degrees) at 6 MPH (5 KT):0
Visibility: 10 mile(s):0
Sky conditions: partly cloudy
Temperature: 75.0 F (23.9 C)
Dew Point: 75.0 F (23.9 C)
Relative Humidity: 100%
Pressure (altimeter): 29.9 in. Hg (1012 hPa)
ob: KPTN 241256Z AUTO 13005KT 10SM FEW017 SCT026 SCT032 24/24 A2990 RMK AO2 SLP126 T02390239
cycle: 13

Station Type Date Time Source
KPTN TAF UTC NOAA

Error!

Example: see airport list